createdAt,value
2024-03-02T05:52:35.996Z,11.48
2024-03-02T05:55:04.246Z,92.13
2024-03-02T05:57:48.685Z,79.40
2024-03-02T06:00:18.259Z,147.20
2024-03-02T06:02:46.734Z,141.95
2024-03-02T06:05:14.703Z,74.90
2024-03-02T06:07:43.942Z,14.23
2024-03-02T06:10:14.347Z,23.52
2024-03-02T06:12:42.711Z,9.38
2024-03-02T06:15:11.460Z,49.97
2024-03-02T06:17:39.642Z,98.75
2024-03-02T06:20:09.601Z,145.38
2024-03-02T06:22:37.988Z,138.70
2024-03-02T06:25:07.907Z,16.77
2024-03-02T06:27:36.234Z,76.75
2024-03-02T06:30:05.143Z,67.25
2024-03-02T06:32:33.514Z,21.38
2024-03-02T06:35:01.808Z,27.80
2024-03-02T06:37:29.580Z,17.73
2024-03-02T06:39:58.288Z,42.53
2024-03-02T06:42:27.537Z,10.07
2024-03-02T06:44:55.734Z,13.02
2024-03-02T06:47:23.933Z,12.93
2024-03-02T06:49:51.888Z,43.90
2024-03-02T16:50:35.432Z,1.80
2024-03-02T16:53:04.302Z,1.48
2024-03-02T16:55:32.516Z,1.70
2024-03-02T16:58:00.727Z,1.90
2024-03-02T17:00:29.084Z,1.83
2024-03-02T17:02:57.337Z,2.58
2024-03-02T17:05:25.685Z,5.72
2024-03-02T17:07:55.015Z,3.65
2024-03-02T17:10:23.244Z,6.35
2024-03-02T17:12:51.480Z,54.20
2024-03-02T17:15:19.706Z,486.02
2024-03-02T17:17:47.536Z,245.88
2024-03-02T17:20:16.046Z,5.35
2024-03-02T17:22:44.278Z,5.35
2024-03-02T17:25:13.602Z,6.47
2024-03-02T17:27:41.778Z,6.28
2024-03-02T17:30:10.855Z,450.55
2024-03-02T17:32:39.280Z,147.73
2024-03-02T17:35:08.085Z,429.35
2024-03-02T17:37:38.359Z,450.52
2024-03-02T17:40:08.035Z,25.67
2024-03-02T17:42:37.434Z,44.95
2024-03-02T17:45:06.770Z,5.90
2024-03-02T17:47:35.198Z,132.38
2024-03-02T17:50:05.567Z,34.42
2024-03-02T17:52:33.716Z,82.82
2024-03-02T17:55:02.092Z,89.13
2024-03-02T17:57:30.391Z,211.60
2024-03-02T17:59:59.676Z,217.68
2024-03-02T18:02:28.343Z,26.00
2024-03-02T18:04:56.900Z,49.92
2024-03-02T18:07:25.103Z,159.02
2024-03-02T18:09:53.667Z,8.55
2024-03-02T18:12:21.880Z,6.75
2024-03-02T18:14:50.047Z,10.63
2024-03-02T18:17:19.714Z,7.38
2024-03-02T18:19:47.985Z,5.00
2024-03-02T18:22:16.591Z,6.22
2024-03-02T18:24:45.757Z,10.93
2024-03-02T18:27:13.966Z,22.27
2024-03-02T18:29:42.141Z,246.30
2024-03-02T18:32:10.540Z,451.27
2024-03-02T18:34:41.512Z,513.45
2024-03-02T18:37:11.382Z,493.80
2024-03-02T18:39:40.144Z,519.45
2024-03-02T18:42:08.512Z,300.73
2024-03-02T18:44:37.094Z,490.42
2024-03-02T18:47:05.378Z,9.32
2024-03-02T18:49:33.513Z,4.82
2024-03-02T18:52:02.799Z,5.32
2024-03-02T18:54:31.129Z,4.75
2024-03-02T18:56:58.969Z,6.95
2024-03-02T18:59:27.715Z,4.82
2024-03-02T19:01:56.135Z,8.20
2024-03-02T19:04:24.409Z,5.82
2024-03-02T19:06:52.670Z,7.85
2024-03-02T19:09:21.993Z,5.43
2024-03-02T19:11:50.334Z,6.55
2024-03-02T19:14:18.460Z,3.35
2024-03-02T19:16:46.668Z,3.30
2024-03-02T19:19:16.108Z,3.65
2024-03-02T19:21:45.943Z,4.03
2024-03-02T19:24:14.385Z,3.20
2024-03-02T19:26:43.664Z,3.53
2024-03-02T19:29:12.394Z,2.67
2024-03-02T19:31:40.612Z,10.85
2024-03-02T19:34:08.859Z,31.15
2024-03-02T19:36:37.126Z,58.10
2024-03-02T19:39:05.090Z,31.70
2024-03-02T19:41:32.878Z,2.53
2024-03-02T19:44:04.571Z,3.63
2024-03-02T19:46:32.378Z,2.80
2024-03-02T19:49:00.990Z,3.97
2024-03-02T19:51:29.644Z,3.10
2024-03-02T19:53:59.094Z,4.05
2024-03-02T19:56:28.453Z,4.70
2024-03-02T19:58:56.645Z,3.65
2024-03-02T20:01:26.235Z,5.68
2024-03-02T20:03:54.523Z,4.82
2024-03-02T20:06:25.989Z,4.95
2024-03-02T20:08:54.180Z,4.45
2024-03-02T20:11:22.570Z,3.92
2024-03-02T20:13:50.834Z,4.30
2024-03-02T20:16:21.939Z,4.10
2024-03-02T20:18:51.696Z,5.20
2024-03-02T20:21:20.109Z,5.35
2024-03-02T20:23:49.025Z,6.10
2024-03-02T20:26:20.308Z,5.22
2024-03-02T20:28:52.993Z,5.95
2024-03-02T20:31:21.404Z,5.80
2024-03-02T20:33:49.759Z,7.82
2024-03-02T20:36:18.919Z,7.20
2024-03-02T20:38:47.105Z,6.18
2024-03-02T20:41:18.507Z,10.45
2024-03-02T20:43:47.032Z,7.10
2024-03-02T20:46:15.736Z,9.57
2024-03-02T20:48:44.935Z,19.67
2024-03-02T20:51:12.821Z,5.03
2024-03-02T20:53:41.967Z,5.78
2024-03-02T20:56:10.153Z,5.13
2024-03-02T20:58:38.409Z,4.65
2024-03-02T21:01:07.025Z,6.28
2024-03-02T21:03:38.580Z,6.68
2024-03-02T21:06:06.595Z,4.93
2024-03-02T21:08:34.430Z,4.80
2024-03-02T21:11:04.676Z,5.57
2024-03-02T21:13:32.636Z,4.95
2024-03-02T21:16:00.840Z,6.35
2024-03-02T21:18:29.066Z,6.93
2024-03-02T21:20:57.201Z,404.33
2024-03-02T21:23:25.340Z,503.05
2024-03-02T21:25:53.112Z,169.20
2024-03-02T21:28:22.307Z,5.47
2024-03-02T21:30:50.305Z,5.20
2024-03-02T21:33:18.151Z,6.03
2024-03-02T21:35:45.960Z,5.40
2024-03-02T21:38:13.924Z,5.93
